createdAt,value
2023-03-13T00:00:58.492Z,4.74
2023-03-13T00:03:01.358Z,4.94
2023-03-13T00:05:06.568Z,4.96
2023-03-13T00:07:10.511Z,4.85
2023-03-13T00:09:16.059Z,4.77
2023-03-13T00:11:19.056Z,4.91
2023-03-13T00:13:22.099Z,4.95
2023-03-13T00:15:24.936Z,4.78
2023-03-13T00:17:27.906Z,4.77
2023-03-13T00:19:30.786Z,4.71
2023-03-13T00:21:37.870Z,4.74
2023-03-13T00:23:40.705Z,4.76
2023-03-13T00:25:43.684Z,4.73
2023-03-13T00:27:46.607Z,4.86
2023-03-13T00:29:51.275Z,4.81
2023-03-13T00:31:54.447Z,4.79
2023-03-13T00:34:00.478Z,4.91
2023-03-13T00:36:03.942Z,4.93
2023-03-13T00:38:08.504Z,4.76
2023-03-13T00:40:12.323Z,4.92
2023-03-13T00:42:15.231Z,4.93
2023-03-13T00:44:18.224Z,4.91
2023-03-13T00:46:24.623Z,4.94
2023-03-13T00:48:28.575Z,4.96
2023-03-13T00:50:31.544Z,4.88
2023-03-13T00:52:34.485Z,4.92
2023-03-13T00:54:39.745Z,4.93
2023-03-13T00:56:42.607Z,4.96
2023-03-13T00:58:47.448Z,5.01
2023-03-13T01:00:50.743Z,4.99
2023-03-13T01:02:53.736Z,4.99
2023-03-13T01:04:59.169Z,4.98
2023-03-13T01:07:03.104Z,5.02
2023-03-13T01:09:07.169Z,5.02
2023-03-13T01:11:13.309Z,5.03
2023-03-13T01:13:16.370Z,5.00
2023-03-13T01:15:20.024Z,5.07
2023-03-13T01:17:24.291Z,5.05
2023-03-13T01:19:27.291Z,4.99
2023-03-13T01:21:30.792Z,4.98
2023-03-13T01:23:34.104Z,4.98
2023-03-13T01:25:49.803Z,5.06
2023-03-13T01:28:24.572Z,5.10
2023-03-13T01:30:29.015Z,5.15
2023-03-13T01:32:34.152Z,5.10
2023-03-13T01:34:40.806Z,5.09
2023-03-13T01:36:44.312Z,5.05
2023-03-13T01:38:50.058Z,5.14
2023-03-13T01:40:52.933Z,5.09
2023-03-13T01:42:57.783Z,5.22
2023-03-13T01:45:02.234Z,5.13
2023-03-13T01:47:06.155Z,5.18
2023-03-13T01:49:33.764Z,5.14
2023-03-13T01:51:49.957Z,5.19
2023-03-13T01:54:00.905Z,5.16
2023-03-13T01:56:09.233Z,5.08
2023-03-13T01:58:12.187Z,5.13
2023-03-13T02:00:20.687Z,5.15
2023-03-13T02:02:25.645Z,5.16
2023-03-13T02:04:35.444Z,5.20
2023-03-13T02:06:41.627Z,5.23
2023-03-13T02:08:50.905Z,5.20
2023-03-13T02:11:02.640Z,5.28
2023-03-13T02:13:05.766Z,5.16
2023-03-13T02:15:12.012Z,5.16
2023-03-13T02:17:16.703Z,5.14
2023-03-13T02:19:25.190Z,5.17
2023-03-13T02:21:41.982Z,5.19
2023-03-13T02:23:53.792Z,5.19
2023-03-13T02:25:58.736Z,5.16
2023-03-13T02:28:14.749Z,5.21
2023-03-13T02:30:18.211Z,5.22
2023-03-13T02:32:22.283Z,5.23
2023-03-13T02:34:29.172Z,5.29
2023-03-13T02:36:33.840Z,5.29
2023-03-13T02:38:39.731Z,5.34
2023-03-13T02:40:46.253Z,5.34
2023-03-13T02:42:52.361Z,5.36
2023-03-13T02:44:55.542Z,5.40
2023-03-13T02:46:58.691Z,5.42
2023-03-13T02:49:21.185Z,5.41
2023-03-13T02:51:29.692Z,5.39
2023-03-13T02:53:35.597Z,5.41
2023-03-13T02:55:41.775Z,5.50
2023-03-13T02:57:46.797Z,5.46
2023-03-13T02:59:51.312Z,5.48
2023-03-13T03:01:54.496Z,5.48
2023-03-13T03:03:58.433Z,5.47
2023-03-13T03:06:01.697Z,5.57
2023-03-13T03:08:04.758Z,5.59
2023-03-13T03:10:08.698Z,5.60
2023-03-13T03:12:12.137Z,5.62
2023-03-13T03:14:15.428Z,5.62
2023-03-13T03:16:22.781Z,5.68
2023-03-13T03:18:25.989Z,5.67
2023-03-13T03:20:29.064Z,5.71
2023-03-13T03:22:32.796Z,5.70
2023-03-13T03:24:37.266Z,5.72
2023-03-13T03:26:41.103Z,5.70
2023-03-13T03:28:50.166Z,5.71
2023-03-13T03:30:54.591Z,5.69
2023-03-13T03:32:59.483Z,5.69
2023-03-13T03:35:03.048Z,5.74
2023-03-13T03:37:06.030Z,5.76
2023-03-13T03:39:08.991Z,5.83
2023-03-13T03:41:14.246Z,5.80
2023-03-13T03:43:17.330Z,5.79
2023-03-13T03:45:20.402Z,5.81
2023-03-13T03:47:23.271Z,5.83
2023-03-13T03:49:27.721Z,5.81
2023-03-13T03:51:30.968Z,5.87
2023-03-13T03:53:34.062Z,5.81
2023-03-13T03:55:37.185Z,5.83
2023-03-13T03:57:40.224Z,5.77
2023-03-13T03:59:47.563Z,5.87
2023-03-13T04:01:50.505Z,5.86
2023-03-13T04:03:57.572Z,5.84
2023-03-13T04:06:02.126Z,5.89
2023-03-13T04:08:05.625Z,5.89
2023-03-13T04:10:09.850Z,5.92
2023-03-13T04:12:18.845Z,5.86
2023-03-13T04:14:23.235Z,5.91
2023-03-13T04:16:26.905Z,5.95
2023-03-13T04:18:31.386Z,5.92
2023-03-13T04:20:34.698Z,5.93
2023-03-13T04:22:39.188Z,5.87
2023-03-13T04:24:42.398Z,5.92
2023-03-13T04:26:45.416Z,5.95
2023-03-13T04:28:48.752Z,5.94
2023-03-13T04:30:57.704Z,5.88
2023-03-13T04:33:19.024Z,5.87
2023-03-13T04:35:37.711Z,5.84
2023-03-13T04:37:51.635Z,5.79
2023-03-13T04:40:06.104Z,5.81
2023-03-13T04:42:31.376Z,5.85
2023-03-13T04:45:07.296Z,5.82
2023-03-13T04:47:25.460Z,5.84
2023-03-13T04:49:42.849Z,5.80
2023-03-13T04:52:17.629Z,5.72
2023-03-13T04:54:54.247Z,5.67
2023-03-13T04:57:26.463Z,5.70
2023-03-13T04:59:48.127Z,5.58
2023-03-13T05:02:16.975Z,5.65
2023-03-13T05:04:35.315Z,5.57
2023-03-13T05:06:58.487Z,5.59
2023-03-13T05:09:20.137Z,5.53
2023-03-13T05:11:36.579Z,5.53
2023-03-13T05:13:53.946Z,5.52
2023-03-13T05:16:23.225Z,5.58
2023-03-13T05:18:44.842Z,5.54
2023-03-13T05:21:04.867Z,5.54
2023-03-13T05:23:26.305Z,5.50
2023-03-13T05:25:58.166Z,5.48
2023-03-13T05:28:32.341Z,5.44
2023-03-13T05:31:04.286Z,5.41
2023-03-13T05:33:27.429Z,5.45
2023-03-13T05:36:05.845Z,5.48
2023-03-13T05:38:20.947Z,5.42
2023-03-13T05:40:40.776Z,5.56
2023-03-13T05:42:49.696Z,5.51
2023-03-13T05:45:23.449Z,5.61
2023-03-13T05:48:01.849Z,5.54
2023-03-13T05:50:28.116Z,5.62
2023-03-13T05:52:31.105Z,5.67
2023-03-13T05:54:51.916Z,5.66
2023-03-13T05:57:00.205Z,5.68
2023-03-13T05:59:22.646Z,5.70
2023-03-13T06:01:41.673Z,5.87
2023-03-13T06:03:54.919Z,5.89
2023-03-13T06:06:00.060Z,5.95
2023-03-13T06:08:11.294Z,6.07
2023-03-13T06:10:14.399Z,6.23
2023-03-13T06:12:17.477Z,6.43
2023-03-13T06:14:21.264Z,6.64
2023-03-13T06:17:01.168Z,6.88
2023-03-13T06:19:04.927Z,6.76
2023-03-13T06:21:08.286Z,6.77
2023-03-13T06:23:11.207Z,6.77
2023-03-13T06:25:14.339Z,6.86
2023-03-13T06:27:17.579Z,6.79
2023-03-13T06:29:20.500Z,6.98
2023-03-13T06:31:23.699Z,7.12
2023-03-13T06:33:28.134Z,7.09
2023-03-13T06:35:31.324Z,7.27
2023-03-13T06:37:34.558Z,7.35
2023-03-13T06:39:37.632Z,7.31
2023-03-13T06:41:40.752Z,7.74
2023-03-13T06:43:43.880Z,7.67
2023-03-13T06:45:47.032Z,7.68
2023-03-13T06:47:51.898Z,7.57
2023-03-13T06:49:56.223Z,7.47
2023-03-13T06:51:59.582Z,7.45
2023-03-13T06:54:03.535Z,7.45
2023-03-13T06:56:07.072Z,7.39
2023-03-13T06:58:21.537Z,7.58
2023-03-13T07:00:32.106Z,7.71
2023-03-13T07:02:35.073Z,7.58
2023-03-13T07:04:38.233Z,7.89
2023-03-13T07:06:43.018Z,8.52
2023-03-13T07:08:46.165Z,9.21
2023-03-13T07:10:52.584Z,9.46
2023-03-13T07:12:55.595Z,9.94
2023-03-13T07:14:58.506Z,10.84
2023-03-13T07:17:01.650Z,10.66
2023-03-13T07:19:04.729Z,11.46
2023-03-13T07:21:07.768Z,11.58
2023-03-13T07:23:12.330Z,12.19
2023-03-13T07:25:15.398Z,12.50
2023-03-13T07:27:21.315Z,11.76
2023-03-13T07:29:24.334Z,11.99
2023-03-13T07:31:27.420Z,11.79
2023-03-13T07:33:30.568Z,11.55
2023-03-13T07:35:33.512Z,11.26
2023-03-13T07:37:36.544Z,11.05
2023-03-13T07:39:41.566Z,11.27
2023-03-13T07:41:44.867Z,11.15
2023-03-13T07:43:52.406Z,11.05
2023-03-13T07:45:56.646Z,10.63
2023-03-13T07:47:59.527Z,10.66
2023-03-13T07:50:02.550Z,10.96
2023-03-13T07:52:05.868Z,11.29
2023-03-13T07:54:09.068Z,11.37
2023-03-13T07:56:15.029Z,11.05
2023-03-13T07:58:18.024Z,11.35
2023-03-13T08:00:22.398Z,11.82
2023-03-13T08:02:25.358Z,12.20
2023-03-13T08:04:28.665Z,11.95
2023-03-13T08:06:34.202Z,11.92
2023-03-13T08:08:37.348Z,11.82
2023-03-13T08:10:40.305Z,12.13
2023-03-13T08:12:44.905Z,11.96
2023-03-13T08:14:48.015Z,12.01
2023-03-13T08:16:50.938Z,12.07
2023-03-13T08:18:55.666Z,11.82
2023-03-13T08:21:02.186Z,12.07
2023-03-13T08:23:05.274Z,11.91
2023-03-13T08:25:08.400Z,11.61
2023-03-13T08:27:11.343Z,11.55
2023-03-13T08:29:15.920Z,11.73
2023-03-13T08:31:20.543Z,11.58
2023-03-13T08:33:23.819Z,11.42
2023-03-13T08:35:26.772Z,11.67
2023-03-13T08:37:29.848Z,11.60
2023-03-13T08:39:32.958Z,11.45
2023-03-13T08:41:37.116Z,11.62
2023-03-13T08:43:40.029Z,11.66
2023-03-13T08:45:44.499Z,11.93
2023-03-13T08:47:47.513Z,11.73
2023-03-13T08:49:50.512Z,12.21
2023-03-13T08:51:53.477Z,12.29
2023-03-13T08:53:56.975Z,11.90
2023-03-13T08:56:00.702Z,11.82
2023-03-13T08:58:03.684Z,11.92
2023-03-13T09:00:08.120Z,12.00
2023-03-13T09:02:12.560Z,12.04
2023-03-13T09:04:15.610Z,12.02
2023-03-13T09:06:18.497Z,11.87
2023-03-13T09:08:21.596Z,11.95
2023-03-13T09:10:24.466Z,12.00
2023-03-13T09:12:31.274Z,11.83
2023-03-13T09:14:36.648Z,11.61
2023-03-13T09:16:39.792Z,11.73
2023-03-13T09:18:44.861Z,11.68
2023-03-13T09:20:49.072Z,11.58
2023-03-13T09:22:52.229Z,11.72
2023-03-13T09:24:55.078Z,11.76
2023-03-13T09:27:01.242Z,11.80
2023-03-13T09:29:04.635Z,11.90
2023-03-13T09:31:09.150Z,11.85
2023-03-13T09:33:12.533Z,11.93
2023-03-13T09:35:17.085Z,11.83
2023-03-13T09:37:20.045Z,11.86
2023-03-13T09:39:22.875Z,11.73
2023-03-13T09:41:31.808Z,11.78
2023-03-13T09:43:44.323Z,11.61
2023-03-13T09:45:50.085Z,11.76
2023-03-13T09:47:58.509Z,11.76
2023-03-13T09:50:06.440Z,11.84
2023-03-13T09:52:17.099Z,11.94
2023-03-13T09:54:26.819Z,12.14
2023-03-13T09:56:36.144Z,12.24
2023-03-13T09:58:43.943Z,12.72
2023-03-13T10:00:52.353Z,12.69
2023-03-13T10:02:58.075Z,12.73
2023-03-13T10:05:08.254Z,12.59
2023-03-13T10:07:12.352Z,12.52
2023-03-13T10:09:23.064Z,12.42
2023-03-13T10:11:31.309Z,12.42
2023-03-13T10:13:42.590Z,12.54
2023-03-13T10:15:51.354Z,12.45
2023-03-13T10:17:54.335Z,12.25
2023-03-13T10:20:01.029Z,12.30
2023-03-13T10:22:12.154Z,12.12
2023-03-13T10:24:20.848Z,12.13
2023-03-13T10:26:28.010Z,12.20
2023-03-13T10:28:31.002Z,12.29
2023-03-13T10:30:35.839Z,12.32
2023-03-13T10:32:38.990Z,12.42
2023-03-13T10:34:54.058Z,12.66
2023-03-13T10:36:59.612Z,12.63
2023-03-13T10:39:08.370Z,12.42
2023-03-13T10:41:23.341Z,12.53
2023-03-13T10:43:28.023Z,12.42
2023-03-13T10:45:35.810Z,12.47
2023-03-13T10:47:38.753Z,12.40
2023-03-13T10:49:49.902Z,12.25
2023-03-13T10:51:54.411Z,12.21
2023-03-13T10:53:57.482Z,12.24
2023-03-13T10:56:09.790Z,12.32
2023-03-13T10:58:20.814Z,12.44
2023-03-13T11:00:30.500Z,12.64
2023-03-13T11:02:35.854Z,12.78
2023-03-13T11:04:38.974Z,12.95
2023-03-13T11:06:42.120Z,12.87
2023-03-13T11:08:45.046Z,12.79
2023-03-13T11:10:59.549Z,12.71
2023-03-13T11:13:02.412Z,12.83
2023-03-13T11:15:15.446Z,12.74
2023-03-13T11:17:27.943Z,12.91
2023-03-13T11:19:55.491Z,12.76
2023-03-13T11:22:08.855Z,12.73
2023-03-13T11:24:19.133Z,12.44
2023-03-13T11:26:33.791Z,12.49
2023-03-13T11:28:49.701Z,12.38
2023-03-13T11:31:03.956Z,12.39
2023-03-13T11:33:17.542Z,12.39
2023-03-13T11:35:34.810Z,12.20
2023-03-13T11:37:39.360Z,12.25
2023-03-13T11:39:55.772Z,12.11
2023-03-13T11:42:05.391Z,12.13
2023-03-13T11:44:23.571Z,12.25
2023-03-13T11:46:38.815Z,12.07
2023-03-13T11:49:07.973Z,11.98
2023-03-13T11:51:20.614Z,11.85
2023-03-13T11:53:37.101Z,11.91
2023-03-13T11:55:56.916Z,11.54
2023-03-13T11:58:13.931Z,11.40
2023-03-13T12:00:26.097Z,11.30
2023-03-13T12:02:36.134Z,11.12
2023-03-13T12:04:44.067Z,10.89
2023-03-13T12:06:52.372Z,10.89
2023-03-13T12:09:01.129Z,10.77
2023-03-13T12:11:17.389Z,10.69
2023-03-13T12:13:24.359Z,10.54
2023-03-13T12:15:31.550Z,10.47
2023-03-13T12:17:39.195Z,10.32
2023-03-13T12:19:49.129Z,10.38
2023-03-13T12:21:54.623Z,10.45
2023-03-13T12:24:06.892Z,10.42
2023-03-13T12:26:14.220Z,10.42
2023-03-13T12:28:26.069Z,10.47
2023-03-13T12:30:38.988Z,10.48
2023-03-13T12:32:51.102Z,10.48
2023-03-13T12:35:01.286Z,10.48
2023-03-13T12:37:10.858Z,10.48
2023-03-13T12:39:23.179Z,10.56
2023-03-13T12:41:29.219Z,10.46
2023-03-13T12:43:33.396Z,10.35
2023-03-13T12:45:39.289Z,10.41
2023-03-13T12:48:14.555Z,10.46
2023-03-13T12:50:32.501Z,10.40
2023-03-13T12:53:11.458Z,10.44
2023-03-13T12:55:34.560Z,10.60
2023-03-13T12:58:13.425Z,10.54
2023-03-13T13:00:19.727Z,10.59
2023-03-13T13:02:24.931Z,10.45
2023-03-13T13:04:32.169Z,10.49
2023-03-13T13:07:03.545Z,10.48
2023-03-13T13:09:18.073Z,10.36
2023-03-13T13:11:52.555Z,10.31
2023-03-13T13:13:55.504Z,10.37
2023-03-13T13:16:04.046Z,10.31
2023-03-13T13:18:16.826Z,10.30
2023-03-13T13:20:38.048Z,10.32
2023-03-13T13:22:52.464Z,10.30
2023-03-13T13:24:57.632Z,10.31
2023-03-13T13:27:00.701Z,10.25
2023-03-13T13:29:58.902Z,10.33
2023-03-13T13:32:03.346Z,10.33
2023-03-13T13:34:06.362Z,10.35
2023-03-13T13:36:31.986Z,10.30
2023-03-13T13:38:40.691Z,10.31
2023-03-13T13:40:59.861Z,10.21
2023-03-13T13:43:06.006Z,10.12
2023-03-13T13:45:23.224Z,10.13
2023-03-13T13:47:28.640Z,10.19
2023-03-13T13:49:53.613Z,10.28
2023-03-13T13:52:20.741Z,10.16
2023-03-13T13:54:33.404Z,10.24
2023-03-13T13:56:41.468Z,10.18
2023-03-13T13:58:46.459Z,10.23
2023-03-13T14:00:54.572Z,10.21
2023-03-13T14:02:58.233Z,10.21
2023-03-13T14:05:06.735Z,10.31
2023-03-13T14:07:17.301Z,10.31
2023-03-13T14:09:32.042Z,10.26
2023-03-13T14:11:38.686Z,10.27
2023-03-13T14:13:41.835Z,10.36
2023-03-13T14:15:46.678Z,10.31
2023-03-13T14:17:52.121Z,10.30
2023-03-13T14:19:55.107Z,10.32
2023-03-13T14:22:02.737Z,10.35
2023-03-13T14:24:14.037Z,10.39
2023-03-13T14:26:20.193Z,10.39
2023-03-13T14:28:24.960Z,10.43
2023-03-13T14:30:28.012Z,10.45
2023-03-13T14:32:31.084Z,10.48
2023-03-13T14:34:34.253Z,10.48
2023-03-13T14:36:47.897Z,10.56
2023-03-13T14:38:55.602Z,10.64
2023-03-13T14:40:58.800Z,10.66
2023-03-13T14:43:04.336Z,10.72
2023-03-13T14:45:14.907Z,10.72
2023-03-13T14:47:24.053Z,10.70
2023-03-13T14:49:30.091Z,10.71
2023-03-13T14:51:33.547Z,10.70
2023-03-13T14:53:37.024Z,10.59
2023-03-13T14:55:43.126Z,10.66
2023-03-13T14:57:56.272Z,10.66
2023-03-13T15:00:29.039Z,10.66
2023-03-13T15:02:32.725Z,10.67
2023-03-13T15:05:07.822Z,10.67
2023-03-13T15:07:11.069Z,10.62
2023-03-13T15:09:22.869Z,10.58
2023-03-13T15:11:32.598Z,10.47
2023-03-13T15:13:37.410Z,10.54
2023-03-13T15:15:42.279Z,10.50
2023-03-13T15:17:45.428Z,10.43
2023-03-13T15:19:53.634Z,10.43
2023-03-13T15:21:56.955Z,10.37
2023-03-13T15:24:02.326Z,10.39
2023-03-13T15:26:05.986Z,10.42
2023-03-13T15:28:16.209Z,10.30
2023-03-13T15:30:20.776Z,10.36
2023-03-13T15:32:28.345Z,10.33
2023-03-13T15:34:34.267Z,10.41
2023-03-13T15:36:37.456Z,10.37
2023-03-13T15:38:40.605Z,10.42
2023-03-13T15:40:44.338Z,10.44
2023-03-13T15:42:47.757Z,10.30
2023-03-13T15:44:50.825Z,10.33
2023-03-13T15:46:53.707Z,10.35
2023-03-13T15:48:58.146Z,10.21
2023-03-13T15:51:04.244Z,10.32
2023-03-13T15:53:17.738Z,10.31
2023-03-13T15:55:20.571Z,10.21
2023-03-13T15:57:25.888Z,10.37
2023-03-13T15:59:28.939Z,10.36
2023-03-13T16:01:33.481Z,10.28
2023-03-13T16:03:36.370Z,10.27
2023-03-13T16:05:40.816Z,10.22
2023-03-13T16:07:43.860Z,10.28
2023-03-13T16:09:47.218Z,10.35
2023-03-13T16:11:50.298Z,10.36
2023-03-13T16:13:53.614Z,10.28
2023-03-13T16:15:56.953Z,10.33
2023-03-13T16:17:59.948Z,10.41
2023-03-13T16:20:02.947Z,10.30
2023-03-13T16:22:07.289Z,10.21
2023-03-13T16:24:10.174Z,10.17
2023-03-13T16:26:16.002Z,10.12
2023-03-13T16:28:18.880Z,10.14
2023-03-13T16:30:25.049Z,10.15
2023-03-13T16:32:28.554Z,10.03
2023-03-13T16:34:31.832Z,10.06
2023-03-13T16:36:35.956Z,10.06
2023-03-13T16:38:40.570Z,10.02
2023-03-13T16:40:43.620Z,10.03
2023-03-13T16:42:46.918Z,10.13
2023-03-13T16:44:49.831Z,10.09
2023-03-13T16:47:04.754Z,10.09
2023-03-13T16:49:14.406Z,10.06
2023-03-13T16:51:19.819Z,9.96
2023-03-13T16:53:22.734Z,9.89
2023-03-13T16:55:30.748Z,9.90
2023-03-13T16:57:33.719Z,9.99
2023-03-13T16:59:36.810Z,9.88
2023-03-13T17:01:39.688Z,9.85
2023-03-13T17:03:42.693Z,9.87
2023-03-13T17:05:45.547Z,10.02
2023-03-13T17:07:50.732Z,9.98
2023-03-13T17:09:54.039Z,9.92
2023-03-13T17:11:58.686Z,9.93
2023-03-13T17:14:04.077Z,9.89
2023-03-13T17:16:14.300Z,10.01
2023-03-13T17:18:17.264Z,10.02
2023-03-13T17:20:21.970Z,10.06
2023-03-13T17:22:24.832Z,10.15
2023-03-13T17:24:27.821Z,10.08
2023-03-13T17:26:33.874Z,9.99
2023-03-13T17:28:38.359Z,9.99
2023-03-13T17:30:41.204Z,10.00
2023-03-13T17:32:44.236Z,9.97
2023-03-13T17:34:47.320Z,9.90
2023-03-13T17:36:50.573Z,9.93
2023-03-13T17:38:55.889Z,9.83
2023-03-13T17:40:58.840Z,9.75
2023-03-13T17:43:01.660Z,9.81
2023-03-13T17:45:07.369Z,9.74
2023-03-13T17:47:14.098Z,9.84
2023-03-13T17:49:18.442Z,9.88
2023-03-13T17:51:23.229Z,9.77
2023-03-13T17:53:26.195Z,9.64
2023-03-13T17:55:29.140Z,9.61
2023-03-13T17:57:32.261Z,9.64
2023-03-13T17:59:35.381Z,9.67
2023-03-13T18:01:40.574Z,9.58
2023-03-13T18:03:44.144Z,9.46
2023-03-13T18:05:47.184Z,9.45
2023-03-13T18:07:50.998Z,9.52
2023-03-13T18:09:54.070Z,9.56
2023-03-13T18:11:56.982Z,9.57
2023-03-13T18:14:00.128Z,9.49
2023-03-13T18:16:03.187Z,9.56
2023-03-13T18:18:14.734Z,9.54
2023-03-13T18:20:19.283Z,9.50
2023-03-13T18:22:22.630Z,9.64
2023-03-13T18:24:26.283Z,9.50
2023-03-13T18:26:31.891Z,9.41
2023-03-13T18:28:34.433Z,9.36
2023-03-13T18:30:39.260Z,9.37
2023-03-13T18:32:42.303Z,9.35
2023-03-13T18:34:46.849Z,9.28
2023-03-13T18:36:50.029Z,9.22
2023-03-13T18:38:53.772Z,9.08
2023-03-13T18:40:56.663Z,9.16
2023-03-13T18:43:00.392Z,9.06
2023-03-13T18:45:03.683Z,8.96
2023-03-13T18:47:12.343Z,8.88
2023-03-13T18:49:17.683Z,8.86
2023-03-13T18:51:25.194Z,8.96
2023-03-13T18:53:27.993Z,8.94
2023-03-13T18:55:31.753Z,8.94
2023-03-13T18:57:34.704Z,9.04
2023-03-13T18:59:37.632Z,9.12
2023-03-13T19:01:40.596Z,9.05
2023-03-13T19:03:44.489Z,9.23
2023-03-13T19:05:47.355Z,9.19
2023-03-13T19:07:52.028Z,9.17
2023-03-13T19:09:54.959Z,9.29
2023-03-13T19:11:58.102Z,9.15
2023-03-13T19:14:01.067Z,9.12
2023-03-13T19:16:04.108Z,9.04
2023-03-13T19:18:11.018Z,8.97
2023-03-13T19:20:16.018Z,8.97
2023-03-13T19:22:18.879Z,8.98
2023-03-13T19:24:24.386Z,8.94
2023-03-13T19:26:30.326Z,8.86
2023-03-13T19:28:33.246Z,8.97
2023-03-13T19:30:36.026Z,9.11
2023-03-13T19:32:39.614Z,9.00
2023-03-13T19:34:42.569Z,9.05
2023-03-13T19:36:47.547Z,9.02
2023-03-13T19:38:50.906Z,8.97
2023-03-13T19:40:55.171Z,9.08
2023-03-13T19:42:57.972Z,9.11
2023-03-13T19:45:00.842Z,8.94
2023-03-13T19:47:04.560Z,8.95
2023-03-13T19:49:07.380Z,8.99
2023-03-13T19:51:10.090Z,8.92
2023-03-13T19:53:13.413Z,9.31
2023-03-13T19:55:16.436Z,9.32
2023-03-13T19:57:20.910Z,9.42
2023-03-13T19:59:27.162Z,9.37
2023-03-13T20:01:30.384Z,9.52
2023-03-13T20:03:33.632Z,9.59
2023-03-13T20:05:37.041Z,9.72
2023-03-13T20:07:39.921Z,9.78
2023-03-13T20:09:42.972Z,9.86
2023-03-13T20:11:45.992Z,9.76
2023-03-13T20:13:50.482Z,9.82
2023-03-13T20:15:53.502Z,9.76
2023-03-13T20:17:56.413Z,9.60
2023-03-13T20:19:59.230Z,9.71
2023-03-13T20:22:05.528Z,9.67
2023-03-13T20:24:09.067Z,9.72
2023-03-13T20:26:13.667Z,9.53
2023-03-13T20:28:16.657Z,9.50
2023-03-13T20:30:21.662Z,9.47
2023-03-13T20:32:24.591Z,9.47
2023-03-13T20:34:28.470Z,9.50
2023-03-13T20:36:31.289Z,9.50
2023-03-13T20:38:35.200Z,9.55
2023-03-13T20:40:38.159Z,9.25
2023-03-13T20:42:41.145Z,9.18
2023-03-13T20:44:44.155Z,8.95
2023-03-13T20:46:48.601Z,8.75
2023-03-13T20:48:51.467Z,8.73
2023-03-13T20:50:56.481Z,8.57
2023-03-13T20:52:59.346Z,8.50
2023-03-13T20:55:02.387Z,8.14
2023-03-13T20:57:05.461Z,8.12
2023-03-13T20:59:08.552Z,8.21
2023-03-13T21:01:11.473Z,8.12
2023-03-13T21:03:17.593Z,8.27
2023-03-13T21:05:21.054Z,8.23
2023-03-13T21:07:23.883Z,7.95
2023-03-13T21:09:26.865Z,7.83
2023-03-13T21:11:29.833Z,7.84
2023-03-13T21:13:32.997Z,7.68
2023-03-13T21:15:36.611Z,7.44
2023-03-13T21:17:40.006Z,7.38
2023-03-13T21:19:45.143Z,7.39
2023-03-13T21:21:50.559Z,7.41
2023-03-13T21:23:53.665Z,7.36
2023-03-13T21:25:56.542Z,7.29
2023-03-13T21:27:59.451Z,7.18
2023-03-13T21:30:02.462Z,7.12
2023-03-13T21:32:05.693Z,7.13
2023-03-13T21:34:08.917Z,7.04
2023-03-13T21:36:15.092Z,6.97
2023-03-13T21:38:18.702Z,6.80
2023-03-13T21:40:21.841Z,6.85
2023-03-13T21:42:24.803Z,6.80
2023-03-13T21:44:27.720Z,6.73
2023-03-13T21:46:33.545Z,6.72
2023-03-13T21:48:38.108Z,6.79
2023-03-13T21:50:41.138Z,6.75
2023-03-13T21:52:45.837Z,6.75
2023-03-13T21:54:49.463Z,6.69
2023-03-13T21:56:52.734Z,6.61
2023-03-13T21:58:56.312Z,6.47
2023-03-13T22:00:59.764Z,6.49
2023-03-13T22:03:02.864Z,6.57
2023-03-13T22:05:06.309Z,6.56
2023-03-13T22:07:09.280Z,6.50
2023-03-13T22:09:14.001Z,6.31
2023-03-13T22:11:17.031Z,6.47
2023-03-13T22:13:20.044Z,6.42
2023-03-13T22:15:22.991Z,6.77
2023-03-13T22:17:25.920Z,6.56
2023-03-13T22:19:28.881Z,6.48
2023-03-13T22:21:31.671Z,6.39
2023-03-13T22:23:34.806Z,6.26
2023-03-13T22:25:40.731Z,6.24
2023-03-13T22:27:43.860Z,6.15
2023-03-13T22:29:47.878Z,6.19
2023-03-13T22:31:50.900Z,6.24
2023-03-13T22:33:53.883Z,6.21
2023-03-13T22:35:57.006Z,6.23
2023-03-13T22:37:59.871Z,6.32
2023-03-13T22:40:02.921Z,6.39
2023-03-13T22:42:07.671Z,6.30
2023-03-13T22:44:10.979Z,6.32
2023-03-13T22:46:15.837Z,6.25
2023-03-13T22:48:18.892Z,6.30
2023-03-13T22:50:25.868Z,6.20
2023-03-13T22:52:31.217Z,6.06
2023-03-13T22:54:34.128Z,5.95
2023-03-13T22:56:37.157Z,5.90
2023-03-13T22:58:42.010Z,5.91
2023-03-13T23:00:45.047Z,5.98
2023-03-13T23:02:48.233Z,5.98
2023-03-13T23:04:51.322Z,6.06
2023-03-13T23:06:54.268Z,6.06
2023-03-13T23:08:57.204Z,5.93
2023-03-13T23:11:02.867Z,5.98
2023-03-13T23:13:05.909Z,6.03
2023-03-13T23:15:11.997Z,6.07
2023-03-13T23:17:14.970Z,6.05
2023-03-13T23:19:17.842Z,6.18
2023-03-13T23:21:20.952Z,6.41
2023-03-13T23:23:23.888Z,6.30
2023-03-13T23:25:26.963Z,6.48
2023-03-13T23:27:29.882Z,6.48
2023-03-13T23:29:33.313Z,6.67
2023-03-13T23:31:37.803Z,6.55
2023-03-13T23:33:40.892Z,6.35
2023-03-13T23:35:45.338Z,6.06
2023-03-13T23:37:49.646Z,6.04
2023-03-13T23:39:52.613Z,6.13
2023-03-13T23:41:55.574Z,5.96
2023-03-13T23:44:01.212Z,5.85
2023-03-13T23:46:04.131Z,5.89
2023-03-13T23:48:08.503Z,6.14
2023-03-13T23:50:12.099Z,6.42
2023-03-13T23:52:14.915Z,6.56
2023-03-13T23:54:17.822Z,6.77
2023-03-13T23:56:21.021Z,6.86
2023-03-13T23:58:23.953Z,6.60
